sensor_id;sensor_type;location;lat;lon;timestamp;temperature;humidity
4725;DHT22;2376;53.544;10.226;2022-08-14T00:00:39;22.60;99.90
4725;DHT22;2376;53.544;10.226;2022-08-14T00:03:06;22.60;99.90
4725;DHT22;2376;53.544;10.226;2022-08-14T00:05:32;22.60;99.90
4725;DHT22;2376;53.544;10.226;2022-08-14T00:08:00;22.50;99.90
4725;DHT22;2376;53.544;10.226;2022-08-14T00:10:27;22.50;99.90
4725;DHT22;2376;53.544;10.226;2022-08-14T00:12:55;22.50;99.90
4725;DHT22;2376;53.544;10.226;2022-08-14T00:15:23;22.50;99.90
4725;DHT22;2376;53.544;10.226;2022-08-14T00:17:51;22.60;99.90
4725;DHT22;2376;53.544;10.226;2022-08-14T00:20:23;22.50;99.90
4725;DHT22;2376;53.544;10.226;2022-08-14T00:22:50;22.60;99.90
4725;DHT22;2376;53.544;10.226;2022-08-14T00:25:18;22.60;99.90
4725;DHT22;2376;53.544;10.226;2022-08-14T00:27:45;22.60;99.90
4725;DHT22;2376;53.544;10.226;2022-08-14T00:30:13;22.70;99.90
4725;DHT22;2376;53.544;10.226;2022-08-14T00:32:41;22.70;99.90
4725;DHT22;2376;53.544;10.226;2022-08-14T00:35:09;22.70;99.90
4725;DHT22;2376;53.544;10.226;2022-08-14T00:37:37;22.70;99.90
4725;DHT22;2376;53.544;10.226;2022-08-14T00:40:06;22.70;99.90
4725;DHT22;2376;53.544;10.226;2022-08-14T00:42:35;22.60;99.90
4725;DHT22;2376;53.544;10.226;2022-08-14T00:45:01;22.60;99.90
4725;DHT22;2376;53.544;10.226;2022-08-14T00:47:28;22.60;99.90
4725;DHT22;2376;53.544;10.226;2022-08-14T00:49:55;22.60;99.90
4725;DHT22;2376;53.544;10.226;2022-08-14T00:52:23;22.60;99.90
4725;DHT22;2376;53.544;10.226;2022-08-14T00:54:50;22.60;99.90
4725;DHT22;2376;53.544;10.226;2022-08-14T00:57:20;22.60;99.90
4725;DHT22;2376;53.544;10.226;2022-08-14T00:59:48;22.70;99.90
4725;DHT22;2376;53.544;10.226;2022-08-14T01:02:16;22.60;99.90
4725;DHT22;2376;53.544;10.226;2022-08-14T01:04:45;22.60;99.90
4725;DHT22;2376;53.544;10.226;2022-08-14T01:07:13;22.60;99.90
4725;DHT22;2376;53.544;10.226;2022-08-14T01:09:46;22.60;99.90
4725;DHT22;2376;53.544;10.226;2022-08-14T01:12:14;22.50;99.90
4725;DHT22;2376;53.544;10.226;2022-08-14T01:14:41;22.50;99.90
4725;DHT22;2376;53.544;10.226;2022-08-14T01:17:09;22.50;99.90
4725;DHT22;2376;53.544;10.226;2022-08-14T01:19:36;22.50;99.90
4725;DHT22;2376;53.544;10.226;2022-08-14T01:22:22;22.50;99.90
4725;DHT22;2376;53.544;10.226;2022-08-14T01:24:49;22.40;99.90
4725;DHT22;2376;53.544;10.226;2022-08-14T01:27:17;22.50;99.90
4725;DHT22;2376;53.544;10.226;2022-08-14T01:29:45;22.50;99.90
4725;DHT22;2376;53.544;10.226;2022-08-14T01:32:12;22.50;99.90
4725;DHT22;2376;53.544;10.226;2022-08-14T01:34:39;22.50;99.90
4725;DHT22;2376;53.544;10.226;2022-08-14T01:37:06;22.50;99.90
4725;DHT22;2376;53.544;10.226;2022-08-14T01:39:35;22.50;99.90
4725;DHT22;2376;53.544;10.226;2022-08-14T01:42:02;22.50;99.90
4725;DHT22;2376;53.544;10.226;2022-08-14T01:44:30;22.50;99.90
4725;DHT22;2376;53.544;10.226;2022-08-14T01:46:58;22.50;99.90
4725;DHT22;2376;53.544;10.226;2022-08-14T01:49:26;22.60;99.90
4725;DHT22;2376;53.544;10.226;2022-08-14T01:51:53;22.50;99.90
4725;DHT22;2376;53.544;10.226;2022-08-14T01:54:22;22.40;99.90
4725;DHT22;2376;53.544;10.226;2022-08-14T01:56:52;22.30;99.90
4725;DHT22;2376;53.544;10.226;2022-08-14T01:59:22;22.20;99.90
4725;DHT22;2376;53.544;10.226;2022-08-14T02:01:55;22.20;99.90
4725;DHT22;2376;53.544;10.226;2022-08-14T02:04:25;22.10;99.90
4725;DHT22;2376;53.544;10.226;2022-08-14T02:06:51;22.10;99.90
4725;DHT22;2376;53.544;10.226;2022-08-14T02:09:19;22.10;99.90
4725;DHT22;2376;53.544;10.226;2022-08-14T02:11:46;22.20;99.90
4725;DHT22;2376;53.544;10.226;2022-08-14T02:14:16;22.20;99.90
4725;DHT22;2376;53.544;10.226;2022-08-14T02:16:45;22.30;99.90
4725;DHT22;2376;53.544;10.226;2022-08-14T02:19:17;22.30;99.90
4725;DHT22;2376;53.544;10.226;2022-08-14T02:21:46;22.40;99.90
4725;DHT22;2376;53.544;10.226;2022-08-14T02:24:15;22.40;99.90
4725;DHT22;2376;53.544;10.226;2022-08-14T02:26:43;22.50;99.90
4725;DHT22;2376;53.544;10.226;2022-08-14T02:29:19;22.40;99.90
4725;DHT22;2376;53.544;10.226;2022-08-14T02:31:50;22.40;99.90
4725;DHT22;2376;53.544;10.226;2022-08-14T02:34:19;22.40;99.90
4725;DHT22;2376;53.544;10.226;2022-08-14T02:36:48;22.50;99.90
4725;DHT22;2376;53.544;10.226;2022-08-14T02:39:16;22.50;99.90
4725;DHT22;2376;53.544;10.226;2022-08-14T02:41:44;22.50;99.90
4725;DHT22;2376;53.544;10.226;2022-08-14T02:44:17;22.50;99.90
4725;DHT22;2376;53.544;10.226;2022-08-14T02:46:45;22.50;99.90
4725;DHT22;2376;53.544;10.226;2022-08-14T02:49:12;22.30;99.90
4725;DHT22;2376;53.544;10.226;2022-08-14T02:51:39;22.20;99.90
4725;DHT22;2376;53.544;10.226;2022-08-14T02:54:07;22.10;99.90
4725;DHT22;2376;53.544;10.226;2022-08-14T02:56:35;21.90;99.90
4725;DHT22;2376;53.544;10.226;2022-08-14T02:59:04;21.80;99.90
4725;DHT22;2376;53.544;10.226;2022-08-14T03:01:34;21.60;99.90
4725;DHT22;2376;53.544;10.226;2022-08-14T03:04:01;21.60;99.90
4725;DHT22;2376;53.544;10.226;2022-08-14T03:06:28;21.60;99.90
4725;DHT22;2376;53.544;10.226;2022-08-14T03:08:55;21.70;99.90
4725;DHT22;2376;53.544;10.226;2022-08-14T03:11:24;21.70;99.90
4725;DHT22;2376;53.544;10.226;2022-08-14T03:13:51;21.60;99.90
4725;DHT22;2376;53.544;10.226;2022-08-14T03:16:20;21.50;99.90
4725;DHT22;2376;53.544;10.226;2022-08-14T03:18:50;21.50;99.90
4725;DHT22;2376;53.544;10.226;2022-08-14T03:21:19;21.50;99.90
4725;DHT22;2376;53.544;10.226;2022-08-14T03:23:49;21.50;99.90
4725;DHT22;2376;53.544;10.226;2022-08-14T03:26:18;21.50;99.90
4725;DHT22;2376;53.544;10.226;2022-08-14T03:28:51;21.50;99.90
4725;DHT22;2376;53.544;10.226;2022-08-14T03:31:20;21.40;99.90
4725;DHT22;2376;53.544;10.226;2022-08-14T03:33:50;21.40;99.90
4725;DHT22;2376;53.544;10.226;2022-08-14T03:36:18;21.40;99.90
4725;DHT22;2376;53.544;10.226;2022-08-14T03:38:48;21.40;99.90
4725;DHT22;2376;53.544;10.226;2022-08-14T03:41:17;21.30;99.90
4725;DHT22;2376;53.544;10.226;2022-08-14T03:43:47;21.30;99.90
4725;DHT22;2376;53.544;10.226;2022-08-14T03:46:15;21.40;99.90
4725;DHT22;2376;53.544;10.226;2022-08-14T03:48:44;21.50;99.90
4725;DHT22;2376;53.544;10.226;2022-08-14T03:51:12;21.50;99.90
4725;DHT22;2376;53.544;10.226;2022-08-14T03:53:40;21.50;99.90
4725;DHT22;2376;53.544;10.226;2022-08-14T03:56:07;21.40;99.90
4725;DHT22;2376;53.544;10.226;2022-08-14T03:58:38;21.40;99.90
4725;DHT22;2376;53.544;10.226;2022-08-14T04:01:06;21.40;99.90
4725;DHT22;2376;53.544;10.226;2022-08-14T04:03:33;21.40;99.90
4725;DHT22;2376;53.544;10.226;2022-08-14T04:06:00;21.30;99.90
4725;DHT22;2376;53.544;10.226;2022-08-14T04:08:29;21.30;99.90
4725;DHT22;2376;53.544;10.226;2022-08-14T04:10:56;21.20;99.90
4725;DHT22;2376;53.544;10.226;2022-08-14T04:13:22;21.20;99.90
4725;DHT22;2376;53.544;10.226;2022-08-14T04:15:49;21.20;99.90
4725;DHT22;2376;53.544;10.226;2022-08-14T04:18:16;21.20;99.90
4725;DHT22;2376;53.544;10.226;2022-08-14T04:20:42;21.10;99.90
4725;DHT22;2376;53.544;10.226;2022-08-14T04:23:09;21.00;99.90
4725;DHT22;2376;53.544;10.226;2022-08-14T04:25:37;21.00;99.90
4725;DHT22;2376;53.544;10.226;2022-08-14T04:28:05;21.00;99.90
4725;DHT22;2376;53.544;10.226;2022-08-14T04:30:34;20.90;99.90
4725;DHT22;2376;53.544;10.226;2022-08-14T04:33:04;20.80;99.90
4725;DHT22;2376;53.544;10.226;2022-08-14T04:35:31;20.80;99.90
4725;DHT22;2376;53.544;10.226;2022-08-14T04:37:57;20.80;99.90
4725;DHT22;2376;53.544;10.226;2022-08-14T04:40:42;20.70;99.90
4725;DHT22;2376;53.544;10.226;2022-08-14T04:43:27;20.70;99.90
4725;DHT22;2376;53.544;10.226;2022-08-14T04:46:05;20.70;99.90
4725;DHT22;2376;53.544;10.226;2022-08-14T04:48:32;20.70;99.90
4725;DHT22;2376;53.544;10.226;2022-08-14T04:50:59;20.60;99.90
4725;DHT22;2376;53.544;10.226;2022-08-14T04:53:28;20.60;99.90
4725;DHT22;2376;53.544;10.226;2022-08-14T04:55:57;20.70;99.90
4725;DHT22;2376;53.544;10.226;2022-08-14T04:58:26;20.70;99.90
4725;DHT22;2376;53.544;10.226;2022-08-14T05:00:54;20.60;99.90
4725;DHT22;2376;53.544;10.226;2022-08-14T05:03:23;20.60;99.90
4725;DHT22;2376;53.544;10.226;2022-08-14T05:05:54;20.60;99.90
4725;DHT22;2376;53.544;10.226;2022-08-14T05:08:21;20.60;99.90
4725;DHT22;2376;53.544;10.226;2022-08-14T05:10:50;20.70;99.90
4725;DHT22;2376;53.544;10.226;2022-08-14T05:13:19;20.80;99.90
4725;DHT22;2376;53.544;10.226;2022-08-14T05:15:46;20.80;99.90
4725;DHT22;2376;53.544;10.226;2022-08-14T05:18:15;20.90;99.90
4725;DHT22;2376;53.544;10.226;2022-08-14T05:20:45;20.90;99.90
4725;DHT22;2376;53.544;10.226;2022-08-14T05:23:12;21.00;99.90
4725;DHT22;2376;53.544;10.226;2022-08-14T05:25:39;21.00;99.90
4725;DHT22;2376;53.544;10.226;2022-08-14T05:28:10;20.90;99.90
4725;DHT22;2376;53.544;10.226;2022-08-14T05:30:38;21.00;99.90
4725;DHT22;2376;53.544;10.226;2022-08-14T05:33:08;21.00;99.90
4725;DHT22;2376;53.544;10.226;2022-08-14T05:35:37;21.00;99.90
4725;DHT22;2376;53.544;10.226;2022-08-14T05:38:06;21.00;99.90
4725;DHT22;2376;53.544;10.226;2022-08-14T05:40:33;21.10;99.90
4725;DHT22;2376;53.544;10.226;2022-08-14T05:43:00;21.00;99.90
4725;DHT22;2376;53.544;10.226;2022-08-14T05:45:27;21.00;99.90
4725;DHT22;2376;53.544;10.226;2022-08-14T05:47:55;21.10;99.90
4725;DHT22;2376;53.544;10.226;2022-08-14T05:50:22;21.10;99.90
4725;DHT22;2376;53.544;10.226;2022-08-14T05:52:49;21.20;99.90
4725;DHT22;2376;53.544;10.226;2022-08-14T05:55:16;21.20;99.90
4725;DHT22;2376;53.544;10.226;2022-08-14T05:57:52;21.30;99.90
4725;DHT22;2376;53.544;10.226;2022-08-14T06:00:21;21.40;99.90
4725;DHT22;2376;53.544;10.226;2022-08-14T06:02:47;21.50;99.90
4725;DHT22;2376;53.544;10.226;2022-08-14T06:05:16;21.60;99.90
4725;DHT22;2376;53.544;10.226;2022-08-14T06:07:43;21.60;99.90
4725;DHT22;2376;53.544;10.226;2022-08-14T06:10:10;21.70;99.90
4725;DHT22;2376;53.544;10.226;2022-08-14T06:12:37;21.80;99.90
4725;DHT22;2376;53.544;10.226;2022-08-14T06:15:05;21.90;99.90
4725;DHT22;2376;53.544;10.226;2022-08-14T06:17:42;22.00;99.90
4725;DHT22;2376;53.544;10.226;2022-08-14T06:20:10;22.10;99.90
4725;DHT22;2376;53.544;10.226;2022-08-14T06:22:39;22.00;99.90
4725;DHT22;2376;53.544;10.226;2022-08-14T06:25:07;22.00;99.90
4725;DHT22;2376;53.544;10.226;2022-08-14T06:27:35;22.00;99.90
4725;DHT22;2376;53.544;10.226;2022-08-14T06:30:05;22.00;99.90
4725;DHT22;2376;53.544;10.226;2022-08-14T06:32:32;22.00;99.90
4725;DHT22;2376;53.544;10.226;2022-08-14T06:34:59;22.10;99.90
4725;DHT22;2376;53.544;10.226;2022-08-14T06:37:25;22.20;99.90
4725;DHT22;2376;53.544;10.226;2022-08-14T06:39:54;22.20;99.90
4725;DHT22;2376;53.544;10.226;2022-08-14T06:42:20;22.30;99.90
4725;DHT22;2376;53.544;10.226;2022-08-14T06:44:47;22.30;99.90
4725;DHT22;2376;53.544;10.226;2022-08-14T06:47:14;22.30;99.90
4725;DHT22;2376;53.544;10.226;2022-08-14T06:49:40;22.50;99.90
4725;DHT22;2376;53.544;10.226;2022-08-14T06:52:07;22.50;99.90
4725;DHT22;2376;53.544;10.226;2022-08-14T06:54:34;22.60;99.90
4725;DHT22;2376;53.544;10.226;2022-08-14T06:57:02;22.70;99.90
4725;DHT22;2376;53.544;10.226;2022-08-14T06:59:29;22.70;99.90
4725;DHT22;2376;53.544;10.226;2022-08-14T07:01:55;22.80;99.90
4725;DHT22;2376;53.544;10.226;2022-08-14T07:04:39;22.90;99.90
4725;DHT22;2376;53.544;10.226;2022-08-14T07:07:20;22.90;99.90
4725;DHT22;2376;53.544;10.226;2022-08-14T07:09:47;23.00;99.90
4725;DHT22;2376;53.544;10.226;2022-08-14T07:12:16;23.00;99.90
4725;DHT22;2376;53.544;10.226;2022-08-14T07:14:42;23.00;99.90
4725;DHT22;2376;53.544;10.226;2022-08-14T07:17:09;23.10;99.90
4725;DHT22;2376;53.544;10.226;2022-08-14T07:19:36;23.20;99.90
4725;DHT22;2376;53.544;10.226;2022-08-14T07:22:03;23.20;99.90
4725;DHT22;2376;53.544;10.226;2022-08-14T07:24:29;23.30;99.90
4725;DHT22;2376;53.544;10.226;2022-08-14T07:26:56;23.40;99.90
4725;DHT22;2376;53.544;10.226;2022-08-14T07:29:24;23.50;99.90
4725;DHT22;2376;53.544;10.226;2022-08-14T07:31:50;23.60;99.90
4725;DHT22;2376;53.544;10.226;2022-08-14T07:34:17;23.70;99.90
4725;DHT22;2376;53.544;10.226;2022-08-14T07:36:44;23.70;99.90
4725;DHT22;2376;53.544;10.226;2022-08-14T07:39:10;23.90;99.90
4725;DHT22;2376;53.544;10.226;2022-08-14T07:41:37;24.00;99.90
4725;DHT22;2376;53.544;10.226;2022-08-14T07:44:04;24.00;99.90
4725;DHT22;2376;53.544;10.226;2022-08-14T07:46:32;24.10;99.90
4725;DHT22;2376;53.544;10.226;2022-08-14T07:48:58;24.10;99.90
4725;DHT22;2376;53.544;10.226;2022-08-14T07:51:25;24.30;99.90
4725;DHT22;2376;53.544;10.226;2022-08-14T07:53:52;24.30;99.90
4725;DHT22;2376;53.544;10.226;2022-08-14T07:56:19;24.40;99.90
4725;DHT22;2376;53.544;10.226;2022-08-14T07:58:46;24.40;99.90
4725;DHT22;2376;53.544;10.226;2022-08-14T08:01:13;24.50;99.90
4725;DHT22;2376;53.544;10.226;2022-08-14T08:03:44;24.70;99.90
4725;DHT22;2376;53.544;10.226;2022-08-14T08:06:11;24.70;99.90
4725;DHT22;2376;53.544;10.226;2022-08-14T08:08:38;24.80;99.90
4725;DHT22;2376;53.544;10.226;2022-08-14T08:11:05;24.80;99.90
4725;DHT22;2376;53.544;10.226;2022-08-14T08:13:34;25.00;99.90
4725;DHT22;2376;53.544;10.226;2022-08-14T08:16:03;25.10;99.90
4725;DHT22;2376;53.544;10.226;2022-08-14T08:18:31;25.20;99.90
4725;DHT22;2376;53.544;10.226;2022-08-14T08:21:00;25.30;99.90
4725;DHT22;2376;53.544;10.226;2022-08-14T08:23:29;25.40;99.90
4725;DHT22;2376;53.544;10.226;2022-08-14T08:25:57;25.50;99.90
4725;DHT22;2376;53.544;10.226;2022-08-14T08:28:25;25.70;99.90
4725;DHT22;2376;53.544;10.226;2022-08-14T08:30:55;25.70;99.90
4725;DHT22;2376;53.544;10.226;2022-08-14T08:33:25;25.70;99.90
4725;DHT22;2376;53.544;10.226;2022-08-14T08:35:56;25.70;99.90
4725;DHT22;2376;53.544;10.226;2022-08-14T08:38:26;25.70;99.90
4725;DHT22;2376;53.544;10.226;2022-08-14T08:40:55;25.70;99.90
4725;DHT22;2376;53.544;10.226;2022-08-14T08:43:25;25.70;99.90
4725;DHT22;2376;53.544;10.226;2022-08-14T08:45:54;25.70;99.90
4725;DHT22;2376;53.544;10.226;2022-08-14T08:48:23;25.80;99.90
4725;DHT22;2376;53.544;10.226;2022-08-14T08:50:54;25.90;99.90
4725;DHT22;2376;53.544;10.226;2022-08-14T08:53:21;26.00;99.90
4725;DHT22;2376;53.544;10.226;2022-08-14T08:55:49;26.20;99.90
4725;DHT22;2376;53.544;10.226;2022-08-14T08:58:18;26.30;99.90
4725;DHT22;2376;53.544;10.226;2022-08-14T09:00:46;26.40;99.90
4725;DHT22;2376;53.544;10.226;2022-08-14T09:03:17;26.60;99.90
4725;DHT22;2376;53.544;10.226;2022-08-14T09:05:53;26.80;99.90
4725;DHT22;2376;53.544;10.226;2022-08-14T09:08:22;26.90;99.90
4725;DHT22;2376;53.544;10.226;2022-08-14T09:10:52;27.10;99.90
4725;DHT22;2376;53.544;10.226;2022-08-14T09:13:20;27.20;99.90
4725;DHT22;2376;53.544;10.226;2022-08-14T09:15:51;27.20;99.90
4725;DHT22;2376;53.544;10.226;2022-08-14T09:18:20;27.20;99.90
4725;DHT22;2376;53.544;10.226;2022-08-14T09:20:49;27.30;99.90
4725;DHT22;2376;53.544;10.226;2022-08-14T09:23:17;27.20;99.90
4725;DHT22;2376;53.544;10.226;2022-08-14T09:25:46;27.30;99.90
4725;DHT22;2376;53.544;10.226;2022-08-14T09:28:16;27.30;99.90
4725;DHT22;2376;53.544;10.226;2022-08-14T09:30:46;27.30;99.90
4725;DHT22;2376;53.544;10.226;2022-08-14T09:33:30;27.40;99.90
4725;DHT22;2376;53.544;10.226;2022-08-14T09:36:43;27.60;99.90
4725;DHT22;2376;53.544;10.226;2022-08-14T09:39:25;27.60;99.90
4725;DHT22;2376;53.544;10.226;2022-08-14T09:42:07;27.60;99.90
4725;DHT22;2376;53.544;10.226;2022-08-14T09:44:46;27.50;99.90
4725;DHT22;2376;53.544;10.226;2022-08-14T09:47:15;27.60;99.90
4725;DHT22;2376;53.544;10.226;2022-08-14T09:49:43;27.70;99.90
4725;DHT22;2376;53.544;10.226;2022-08-14T09:52:11;27.70;99.90
4725;DHT22;2376;53.544;10.226;2022-08-14T09:54:40;27.70;99.90
4725;DHT22;2376;53.544;10.226;2022-08-14T09:57:08;27.70;99.90
4725;DHT22;2376;53.544;10.226;2022-08-14T09:59:44;27.60;99.90
4725;DHT22;2376;53.544;10.226;2022-08-14T10:02:22;27.60;99.90
4725;DHT22;2376;53.544;10.226;2022-08-14T10:05:04;27.60;99.90
4725;DHT22;2376;53.544;10.226;2022-08-14T10:07:36;27.60;99.90
4725;DHT22;2376;53.544;10.226;2022-08-14T10:10:14;27.70;99.90
4725;DHT22;2376;53.544;10.226;2022-08-14T10:12:52;27.70;99.90
4725;DHT22;2376;53.544;10.226;2022-08-14T10:15:24;27.80;99.90
4725;DHT22;2376;53.544;10.226;2022-08-14T10:18:03;27.90;99.90
4725;DHT22;2376;53.544;10.226;2022-08-14T10:20:33;27.90;99.90
4725;DHT22;2376;53.544;10.226;2022-08-14T10:23:08;27.80;99.90
4725;DHT22;2376;53.544;10.226;2022-08-14T10:25:39;27.80;99.90
4725;DHT22;2376;53.544;10.226;2022-08-14T10:28:08;27.90;99.90
4725;DHT22;2376;53.544;10.226;2022-08-14T10:30:36;27.90;99.90
4725;DHT22;2376;53.544;10.226;2022-08-14T10:33:03;27.90;99.90
4725;DHT22;2376;53.544;10.226;2022-08-14T10:35:42;27.90;99.90
4725;DHT22;2376;53.544;10.226;2022-08-14T10:38:09;27.90;99.90
4725;DHT22;2376;53.544;10.226;2022-08-14T10:40:36;27.90;99.90
4725;DHT22;2376;53.544;10.226;2022-08-14T10:43:17;27.80;99.90
4725;DHT22;2376;53.544;10.226;2022-08-14T10:45:54;27.80;99.90
4725;DHT22;2376;53.544;10.226;2022-08-14T10:48:23;27.90;99.90
4725;DHT22;2376;53.544;10.226;2022-08-14T10:50:52;27.80;99.90
4725;DHT22;2376;53.544;10.226;2022-08-14T10:53:29;27.70;99.90
4725;DHT22;2376;53.544;10.226;2022-08-14T10:55:58;27.70;99.90
4725;DHT22;2376;53.544;10.226;2022-08-14T10:58:27;27.70;99.90
4725;DHT22;2376;53.544;10.226;2022-08-14T11:00:59;27.70;99.90
4725;DHT22;2376;53.544;10.226;2022-08-14T11:03:37;27.80;99.90
4725;DHT22;2376;53.544;10.226;2022-08-14T11:06:14;27.80;99.90
4725;DHT22;2376;53.544;10.226;2022-08-14T11:08:46;27.80;99.90
4725;DHT22;2376;53.544;10.226;2022-08-14T11:11:15;27.80;99.90
4725;DHT22;2376;53.544;10.226;2022-08-14T11:13:44;27.80;99.90
4725;DHT22;2376;53.544;10.226;2022-08-14T11:16:14;27.70;99.90
4725;DHT22;2376;53.544;10.226;2022-08-14T11:18:46;27.80;99.90
4725;DHT22;2376;53.544;10.226;2022-08-14T11:21:15;27.80;99.90
4725;DHT22;2376;53.544;10.226;2022-08-14T11:23:45;27.90;99.90
4725;DHT22;2376;53.544;10.226;2022-08-14T11:26:12;27.90;99.90
4725;DHT22;2376;53.544;10.226;2022-08-14T11:28:47;27.90;99.90
4725;DHT22;2376;53.544;10.226;2022-08-14T11:31:22;27.90;99.90
4725;DHT22;2376;53.544;10.226;2022-08-14T11:33:50;28.00;99.90
4725;DHT22;2376;53.544;10.226;2022-08-14T11:36:22;28.00;99.90
4725;DHT22;2376;53.544;10.226;2022-08-14T11:38:53;28.10;99.90
4725;DHT22;2376;53.544;10.226;2022-08-14T11:41:20;28.20;99.90
4725;DHT22;2376;53.544;10.226;2022-08-14T11:43:48;28.20;99.90
4725;DHT22;2376;53.544;10.226;2022-08-14T11:46:18;28.20;99.90
4725;DHT22;2376;53.544;10.226;2022-08-14T11:48:49;28.10;99.90
4725;DHT22;2376;53.544;10.226;2022-08-14T11:51:20;28.30;99.90
4725;DHT22;2376;53.544;10.226;2022-08-14T11:53:51;28.40;99.90
4725;DHT22;2376;53.544;10.226;2022-08-14T11:56:18;28.50;99.90
4725;DHT22;2376;53.544;10.226;2022-08-14T11:58:49;28.70;99.90
4725;DHT22;2376;53.544;10.226;2022-08-14T12:01:25;29.00;99.90
4725;DHT22;2376;53.544;10.226;2022-08-14T12:03:59;29.00;99.90
4725;DHT22;2376;53.544;10.226;2022-08-14T12:06:43;29.10;99.90
4725;DHT22;2376;53.544;10.226;2022-08-14T12:09:10;29.20;99.90
4725;DHT22;2376;53.544;10.226;2022-08-14T12:11:39;29.30;99.90
4725;DHT22;2376;53.544;10.226;2022-08-14T12:14:06;29.60;99.90
4725;DHT22;2376;53.544;10.226;2022-08-14T12:16:35;29.80;99.80
4725;DHT22;2376;53.544;10.226;2022-08-14T12:19:02;29.90;98.90
4725;DHT22;2376;53.544;10.226;2022-08-14T12:21:30;30.10;98.50
4725;DHT22;2376;53.544;10.226;2022-08-14T12:24:02;30.30;98.20
4725;DHT22;2376;53.544;10.226;2022-08-14T12:26:30;30.40;97.90
4725;DHT22;2376;53.544;10.226;2022-08-14T12:29:05;30.40;95.50
4725;DHT22;2376;53.544;10.226;2022-08-14T12:31:34;30.40;95.60
4725;DHT22;2376;53.544;10.226;2022-08-14T12:34:04;30.60;95.70
4725;DHT22;2376;53.544;10.226;2022-08-14T12:36:32;30.80;95.60
4725;DHT22;2376;53.544;10.226;2022-08-14T12:39:02;31.00;94.80
4725;DHT22;2376;53.544;10.226;2022-08-14T12:41:30;31.30;91.00
4725;DHT22;2376;53.544;10.226;2022-08-14T12:44:05;31.50;84.90
4725;DHT22;2376;53.544;10.226;2022-08-14T12:46:35;31.40;80.20
4725;DHT22;2376;53.544;10.226;2022-08-14T12:49:08;31.40;82.20
4725;DHT22;2376;53.544;10.226;2022-08-14T12:51:35;31.30;82.00
4725;DHT22;2376;53.544;10.226;2022-08-14T12:54:12;31.10;79.40
4725;DHT22;2376;53.544;10.226;2022-08-14T12:56:40;31.10;79.00
4725;DHT22;2376;53.544;10.226;2022-08-14T12:59:07;31.10;78.70
4725;DHT22;2376;53.544;10.226;2022-08-14T13:01:37;31.20;81.80
4725;DHT22;2376;53.544;10.226;2022-08-14T13:04:09;31.30;79.50
4725;DHT22;2376;53.544;10.226;2022-08-14T13:06:38;31.20;78.30
4725;DHT22;2376;53.544;10.226;2022-08-14T13:09:07;31.10;76.10
4725;DHT22;2376;53.544;10.226;2022-08-14T13:11:37;31.20;71.50
4725;DHT22;2376;53.544;10.226;2022-08-14T13:14:06;31.40;74.10
4725;DHT22;2376;53.544;10.226;2022-08-14T13:16:33;31.60;71.50
4725;DHT22;2376;53.544;10.226;2022-08-14T13:19:02;31.90;69.20
4725;DHT22;2376;53.544;10.226;2022-08-14T13:21:29;32.00;67.10
4725;DHT22;2376;53.544;10.226;2022-08-14T13:23:57;32.10;66.10
4725;DHT22;2376;53.544;10.226;2022-08-14T13:26:25;32.20;65.20
4725;DHT22;2376;53.544;10.226;2022-08-14T13:28:54;32.30;64.40
4725;DHT22;2376;53.544;10.226;2022-08-14T13:31:23;32.40;63.10
4725;DHT22;2376;53.544;10.226;2022-08-14T13:33:52;32.40;62.30
4725;DHT22;2376;53.544;10.226;2022-08-14T13:36:21;32.20;61.00
4725;DHT22;2376;53.544;10.226;2022-08-14T13:38:52;32.20;61.80
4725;DHT22;2376;53.544;10.226;2022-08-14T13:41:20;32.30;62.10
4725;DHT22;2376;53.544;10.226;2022-08-14T13:43:51;32.40;61.90
4725;DHT22;2376;53.544;10.226;2022-08-14T13:46:20;32.50;59.60
4725;DHT22;2376;53.544;10.226;2022-08-14T13:48:47;32.50;60.20
4725;DHT22;2376;53.544;10.226;2022-08-14T13:51:19;32.50;59.10
4725;DHT22;2376;53.544;10.226;2022-08-14T13:53:50;32.60;58.40
4725;DHT22;2376;53.544;10.226;2022-08-14T13:56:26;32.60;58.40
4725;DHT22;2376;53.544;10.226;2022-08-14T13:58:55;32.70;57.60
4725;DHT22;2376;53.544;10.226;2022-08-14T14:01:25;32.70;56.80
4725;DHT22;2376;53.544;10.226;2022-08-14T14:03:54;32.70;55.30
4725;DHT22;2376;53.544;10.226;2022-08-14T14:06:23;32.90;55.30
4725;DHT22;2376;53.544;10.226;2022-08-14T14:08:54;32.90;53.80
4725;DHT22;2376;53.544;10.226;2022-08-14T14:11:21;32.90;53.70
4725;DHT22;2376;53.544;10.226;2022-08-14T14:13:50;32.90;54.00
4725;DHT22;2376;53.544;10.226;2022-08-14T14:16:17;32.90;54.00
4725;DHT22;2376;53.544;10.226;2022-08-14T14:18:45;32.90;52.70
4725;DHT22;2376;53.544;10.226;2022-08-14T14:21:16;32.90;53.50
4725;DHT22;2376;53.544;10.226;2022-08-14T14:23:43;32.80;53.10
4725;DHT22;2376;53.544;10.226;2022-08-14T14:26:14;32.90;53.00
4725;DHT22;2376;53.544;10.226;2022-08-14T14:28:42;32.80;53.20
4725;DHT22;2376;53.544;10.226;2022-08-14T14:31:10;32.70;52.90
4725;DHT22;2376;53.544;10.226;2022-08-14T14:33:41;32.70;52.60
4725;DHT22;2376;53.544;10.226;2022-08-14T14:36:10;32.70;52.70
4725;DHT22;2376;53.544;10.226;2022-08-14T14:38:39;32.70;52.30
4725;DHT22;2376;53.544;10.226;2022-08-14T14:41:08;32.70;53.30
4725;DHT22;2376;53.544;10.226;2022-08-14T14:43:40;32.50;61.10
4725;DHT22;2376;53.544;10.226;2022-08-14T14:46:10;32.20;64.50
4725;DHT22;2376;53.544;10.226;2022-08-14T14:48:40;31.90;66.30
4725;DHT22;2376;53.544;10.226;2022-08-14T14:51:09;31.70;67.70
4725;DHT22;2376;53.544;10.226;2022-08-14T14:53:36;31.40;67.60
4725;DHT22;2376;53.544;10.226;2022-08-14T14:56:04;31.10;69.80
4725;DHT22;2376;53.544;10.226;2022-08-14T14:58:35;31.00;70.80
4725;DHT22;2376;53.544;10.226;2022-08-14T15:01:04;30.90;72.40
4725;DHT22;2376;53.544;10.226;2022-08-14T15:03:32;30.90;73.90
4725;DHT22;2376;53.544;10.226;2022-08-14T15:05:59;31.00;75.00
4725;DHT22;2376;53.544;10.226;2022-08-14T15:08:26;31.00;76.30
4725;DHT22;2376;53.544;10.226;2022-08-14T15:10:53;30.80;76.40
4725;DHT22;2376;53.544;10.226;2022-08-14T15:13:19;30.80;78.10
4725;DHT22;2376;53.544;10.226;2022-08-14T15:15:46;30.70;77.40
4725;DHT22;2376;53.544;10.226;2022-08-14T15:18:14;30.70;77.40
4725;DHT22;2376;53.544;10.226;2022-08-14T15:20:41;30.60;80.70
4725;DHT22;2376;53.544;10.226;2022-08-14T15:23:07;30.40;70.70
4725;DHT22;2376;53.544;10.226;2022-08-14T15:25:34;30.30;62.50
4725;DHT22;2376;53.544;10.226;2022-08-14T15:28:01;29.70;67.80
4725;DHT22;2376;53.544;10.226;2022-08-14T15:30:30;29.30;71.80
4725;DHT22;2376;53.544;10.226;2022-08-14T15:32:56;29.10;71.90
4725;DHT22;2376;53.544;10.226;2022-08-14T15:35:24;28.90;75.00
4725;DHT22;2376;53.544;10.226;2022-08-14T15:37:52;28.90;77.10
4725;DHT22;2376;53.544;10.226;2022-08-14T15:40:19;28.90;79.50
4725;DHT22;2376;53.544;10.226;2022-08-14T15:42:45;28.80;81.90
4725;DHT22;2376;53.544;10.226;2022-08-14T15:45:13;28.80;84.40
4725;DHT22;2376;53.544;10.226;2022-08-14T15:47:41;28.70;86.90
4725;DHT22;2376;53.544;10.226;2022-08-14T15:50:08;28.80;86.70
4725;DHT22;2376;53.544;10.226;2022-08-14T15:52:38;28.90;87.20
4725;DHT22;2376;53.544;10.226;2022-08-14T15:55:07;29.00;90.60
4725;DHT22;2376;53.544;10.226;2022-08-14T15:57:36;28.90;93.20